Airfield :
LOGIN :

Register | Disclaimer

   EN    FR    IT 

 










Legend :    VFR   Marginal VFR   IFR   Intensive IFR   Very Intensive IFR
Visi :
Ceiling :
>= 8 km
>= 3000ft
5 to 8 km
1000 to 3000 ft
1500m to 5 km
500 to 1000 ft
800 to 1500m
200 to 500 ft
< 800m
< 200 ft
Symbols :   Thunderstorms  Fog  Heavy snow  Heavy precipitations  Wind > 20 kt
SIGMETs :     Misc.  Thunderstorms  Icing  Turbulence  Mountain Waves  Volcanic Ashes






- Airport Elevation : 362 ft
- IATA code : WAW


EPWA - Warsaw Okecie

CURRENT METAR :
  • 190300Z 22006KT CAVOK 03/M00 Q1017 NOSIG

EXPIRED METARs :
  • 190230Z 21006KT CAVOK 03/M00 Q1017 NOSIG
  • 190200Z 22005KT CAVOK 02/M00 Q1017 NOSIG
  • 190130Z 20005KT 9999 BKN048 03/M00 Q1017 NOSIG
  • 190100Z 22005KT CAVOK 02/M01 Q1018 NOSIG
  • 190030Z 21005KT CAVOK 02/M01 Q1018 NOSIG

TAF TAF EPWA
Valid from the 19 at 03:00 until the 20 at 03:00 UTC


190230Z 1903/2003 22005KT CAVOK
PROB40
TEMPO 1912/1916 SCT025CB
TEMPO 1917/2003 3000 SHRA SHGS BKN012 BKN020CB
BECMG 1921/1923 28010KT



MET'MAP, your aeronautical weather chart ! - Copyright ORBIFLY December 2007 - Disclaimer

ORBIFLY MET'MAP TEAM :

Programming & Development : Alexandra Zaïnal
Concept & original design : Baudouin d'Aumeries
Assistance for programming : Marc-Olivier Méhu
Technical & hardware support : Manuel Goepfert

Contact : metmap@orbifly.com




SOURCES & CREDITS :

   NOAA